This is the latest recevied weather packets stored in our database for station/object KI7JYE. If no packets are shown the sender has not sent any weather packets the latest 1 day(s).
| Time | Temp. | Humidity | Pressure | Rain* | Wind** | Luminosity | Snow |
|---|---|---|---|---|---|---|---|
| 1778033782 | 18.89° C | 67% | 1013.9 hPa | 0 mm | - | 42 W/m² | - |
| 1778032268 | 18.89° C | 66% | 1013.9 hPa | 0 mm | - | 98 W/m² | - |
| 1778031966 | 18.89° C | 67% | 1013.8 hPa | 0 mm | - | 106 W/m² | - |
| 1778031661 | 18.89° C | 67% | 1014.1 hPa | 0 mm | - | 119 W/m² | - |
| 1778031359 | 18.89° C | 68% | 1013.7 hPa | 0 mm | - | 139 W/m² | - |
| 1778031056 | 19.44° C | 66% | 1013.9 hPa | 0 mm | - | 162 W/m² | - |
| 1778030752 | 18.89° C | 68% | 1014 hPa | 0 mm | - | 177 W/m² | - |
| 1778030449 | 18.33° C | 69% | 1014 hPa | 0 mm | - | 212 W/m² | - |
| 1778030146 | 18.33° C | 70% | 1013.9 hPa | 0 mm | - | 200 W/m² | - |
| 1778029837 | 18.33° C | 69% | 1013.8 hPa | 0 mm | - | 138 W/m² | - |
| 1778029537 | 19.44° C | 67% | 1013.9 hPa | 0 mm | - | 160 W/m² | - |
| 1778029233 | 20° C | 65% | 1014 hPa | 0 mm | - | 151 W/m² | - |
| 1778028930 | 18.33° C | 69% | 1013.9 hPa | 0 mm | - | 230 W/m² | - |
| 1778028626 | 18.33° C | 69% | 1013.9 hPa | 0 mm | - | 179 W/m² | - |
| 1778028020 | 18.33° C | 70% | 1014.1 hPa | 0 mm | - | 145 W/m² | - |
| 1778027109 | 18.89° C | 68% | 1014.2 hPa | 0 mm | - | 184 W/m² | - |
| 1778026501 | 18.89° C | 68% | 1013.9 hPa | 0 mm | - | 172 W/m² | - |
| 1778025291 | 18.89° C | 69% | 1014.3 hPa | 0 mm | - | 213 W/m² | - |
| 1778024685 | 18.89° C | 68% | 1014.5 hPa | 0 mm | - | 244 W/m² | - |
| 1778024079 | 18.89° C | 68% | 1014.6 hPa | 0 mm | - | 224 W/m² | - |
| 1778023171 | 18.33° C | 69% | 1014.5 hPa | 0 mm | - | 279 W/m² | - |
| 1778022264 | 18.89° C | 68% | 1014.5 hPa | 0 mm | - | 266 W/m² | - |
| 1778021960 | 18.33° C | 68% | 1014.5 hPa | 0 mm | - | 331 W/m² | - |
| 1778020747 | 17.78° C | 70% | 1014.8 hPa | 0 mm | - | 288 W/m² | - |
| 1778020140 | 17.78° C | 69% | 1014.8 hPa | 0 mm | - | 298 W/m² | - |
* Rain latest hour (hover to see other rain measurements)
** Current wind speed in m/s (hover to see current wind gust speed)